createdAt,value
2022-09-01T00:00:15.158Z,63.50
2022-09-01T00:02:45.299Z,63.70
2022-09-01T00:05:15.114Z,63.90
2022-09-01T00:07:45.107Z,64.00
2022-09-01T00:10:14.557Z,64.20
2022-09-01T00:12:45.543Z,64.60
2022-09-01T00:15:15.269Z,65.00
2022-09-01T00:17:44.505Z,65.10
2022-09-01T00:20:19.633Z,65.40
2022-09-01T00:22:49.852Z,65.60
2022-09-01T00:25:20.528Z,65.70
2022-09-01T00:27:51.695Z,65.80
2022-09-01T00:30:21.727Z,65.90
2022-09-01T00:32:51.130Z,65.90
2022-09-01T00:35:20.777Z,66.00
2022-09-01T00:37:50.062Z,66.20
2022-09-01T00:40:20.398Z,66.40
2022-09-01T00:42:50.265Z,66.50
2022-09-01T00:45:21.684Z,66.90
2022-09-01T00:47:53.721Z,67.20
2022-09-01T00:50:24.964Z,67.50
2022-09-01T00:52:56.001Z,67.60
2022-09-01T00:55:34.687Z,67.60
2022-09-01T00:58:07.737Z,67.80
2022-09-01T01:00:52.809Z,68.00
2022-09-01T01:03:22.373Z,68.10
2022-09-01T01:05:59.085Z,68.10
2022-09-01T01:08:35.165Z,68.20
2022-09-01T01:11:08.621Z,68.20
2022-09-01T01:13:58.823Z,68.20
2022-09-01T01:16:29.874Z,68.40
2022-09-01T01:19:00.107Z,68.20
2022-09-01T01:22:04.468Z,68.30
2022-09-01T01:24:35.003Z,68.60
2022-09-01T01:27:05.303Z,68.50
2022-09-01T01:29:40.097Z,68.70
2022-09-01T01:32:12.349Z,69.00
2022-09-01T01:34:47.515Z,69.20
2022-09-01T01:37:18.904Z,69.40
2022-09-01T01:39:49.173Z,69.50
2022-09-01T01:42:19.141Z,69.70
2022-09-01T01:44:49.989Z,69.90
2022-09-01T01:47:20.387Z,70.00
2022-09-01T01:49:49.812Z,70.20
2022-09-01T01:52:20.793Z,70.40
2022-09-01T01:54:56.763Z,70.30
2022-09-01T01:57:26.290Z,70.20
2022-09-01T01:59:55.755Z,70.20
2022-09-01T02:02:25.119Z,70.20
2022-09-01T02:04:55.116Z,70.10
2022-09-01T02:07:24.473Z,70.00
2022-09-01T02:09:53.809Z,70.10
2022-09-01T02:12:25.208Z,70.10
2022-09-01T02:14:55.153Z,70.30
2022-09-01T02:17:25.606Z,70.40
2022-09-01T02:19:57.892Z,70.60
2022-09-01T02:22:28.574Z,70.70
2022-09-01T02:24:58.007Z,71.00
2022-09-01T02:27:29.796Z,71.40
2022-09-01T02:29:59.206Z,71.60
2022-09-01T02:32:28.549Z,71.80
2022-09-01T02:35:01.482Z,71.90
2022-09-01T02:37:32.338Z,72.10
2022-09-01T02:40:02.270Z,72.30
2022-09-01T02:42:32.367Z,72.40
2022-09-01T02:45:03.067Z,72.50
2022-09-01T02:47:33.595Z,72.70
2022-09-01T02:50:03.694Z,72.80
2022-09-01T02:52:37.648Z,72.80
2022-09-01T02:55:09.365Z,72.80
2022-09-01T02:57:39.136Z,73.00
2022-09-01T03:00:22.997Z,73.00
2022-09-01T03:02:53.356Z,73.00
2022-09-01T03:05:27.179Z,73.00
2022-09-01T03:08:00.752Z,73.10
2022-09-01T03:10:41.710Z,73.10
2022-09-01T03:13:21.992Z,73.30
2022-09-01T03:15:51.600Z,73.50
2022-09-01T03:18:21.217Z,73.80
2022-09-01T03:20:53.136Z,74.00
2022-09-01T03:23:25.320Z,74.20
2022-09-01T03:25:55.749Z,74.50
2022-09-01T03:28:25.575Z,74.60
2022-09-01T03:30:58.155Z,74.80
2022-09-01T03:33:28.635Z,74.90
2022-09-01T03:35:59.494Z,75.00
2022-09-01T03:38:28.865Z,75.30
2022-09-01T03:41:05.288Z,75.50
2022-09-01T03:43:36.185Z,75.70
2022-09-01T03:46:06.798Z,75.70
2022-09-01T03:48:36.262Z,75.90
2022-09-01T03:51:06.347Z,75.70
2022-09-01T03:53:38.407Z,75.70
2022-09-01T03:56:09.120Z,75.70
2022-09-01T03:58:39.271Z,75.70
2022-09-01T04:01:12.726Z,75.60
2022-09-01T04:03:47.674Z,75.60
2022-09-01T04:06:20.781Z,75.60
2022-09-01T04:08:56.941Z,75.40
2022-09-01T04:11:26.765Z,75.30
2022-09-01T04:13:56.332Z,75.30
2022-09-01T04:16:52.844Z,75.30
2022-09-01T04:19:26.682Z,75.30
2022-09-01T04:22:01.412Z,75.40
2022-09-01T04:24:45.974Z,75.40
2022-09-01T04:27:18.308Z,75.40
2022-09-01T04:29:48.626Z,75.30
2022-09-01T04:32:22.097Z,75.30
2022-09-01T04:34:55.632Z,75.20
2022-09-01T04:37:25.415Z,75.10
2022-09-01T04:40:01.431Z,75.00
2022-09-01T04:42:33.111Z,75.10
2022-09-01T04:45:10.210Z,75.20
2022-09-01T04:47:42.444Z,75.20
2022-09-01T04:50:17.934Z,75.20
2022-09-01T04:53:07.233Z,75.10
2022-09-01T04:55:49.776Z,75.10
2022-09-01T04:58:22.223Z,75.00
2022-09-01T05:00:56.061Z,75.50
2022-09-01T05:03:27.076Z,74.80
2022-09-01T05:06:03.918Z,74.80
2022-09-01T05:08:35.510Z,74.70
2022-09-01T05:11:11.491Z,74.60
2022-09-01T05:13:46.392Z,74.50
2022-09-01T05:16:25.178Z,74.30
2022-09-01T05:18:57.978Z,74.20
2022-09-01T05:21:31.230Z,74.00
2022-09-01T05:24:03.903Z,73.80
2022-09-01T05:26:34.732Z,73.40
2022-09-01T05:29:10.869Z,72.90
2022-09-01T05:31:44.167Z,72.60
2022-09-01T05:34:23.132Z,72.60
2022-09-01T05:36:57.344Z,72.60
2022-09-01T05:39:27.591Z,72.40
2022-09-01T05:41:59.693Z,72.10
2022-09-01T05:44:28.990Z,72.00
2022-09-01T05:47:00.138Z,71.80
2022-09-01T05:49:33.394Z,71.70
2022-09-01T05:52:09.311Z,71.90
2022-09-01T05:54:41.563Z,71.90
2022-09-01T05:57:30.748Z,71.80
2022-09-01T06:00:00.336Z,71.70
2022-09-01T06:02:30.968Z,71.50
2022-09-01T06:05:01.450Z,71.30
2022-09-01T06:07:39.718Z,71.00
2022-09-01T06:10:10.687Z,70.30
2022-09-01T06:12:40.722Z,69.90
2022-09-01T06:15:16.124Z,69.60
2022-09-01T06:17:49.829Z,69.20
2022-09-01T06:20:19.981Z,68.90
2022-09-01T06:22:49.481Z,68.50
2022-09-01T06:25:21.640Z,68.20
2022-09-01T06:27:52.508Z,67.70
2022-09-01T06:30:25.145Z,67.30
2022-09-01T06:33:09.420Z,66.90
2022-09-01T06:35:47.206Z,66.20
2022-09-01T06:38:19.406Z,65.50
2022-09-01T06:41:00.300Z,64.80
2022-09-01T06:43:30.842Z,64.30
2022-09-01T06:46:03.119Z,63.90
2022-09-01T06:48:32.616Z,63.40
2022-09-01T06:51:19.230Z,63.00
2022-09-01T06:53:59.822Z,62.40
2022-09-01T06:56:37.190Z,61.90
2022-09-01T06:59:15.701Z,60.90
2022-09-01T07:01:52.934Z,60.80
2022-09-01T07:04:31.618Z,59.40
2022-09-01T07:10:20.976Z,58.20
2022-09-01T07:13:05.515Z,57.60
2022-09-01T07:18:38.997Z,55.40
2022-09-01T07:24:10.437Z,54.50
2022-09-01T07:27:35.624Z,54.20
2022-09-01T07:30:09.164Z,53.60
2022-09-01T07:35:38.141Z,53.00
2022-09-01T07:42:59.235Z,53.30
2022-09-01T07:44:18.625Z,52.70
2022-09-01T07:47:20.283Z,52.60
2022-09-01T07:50:13.032Z,52.30
2022-09-01T07:52:43.209Z,51.70
2022-09-01T07:55:16.796Z,51.00
2022-09-01T07:57:46.347Z,50.50
2022-09-01T08:00:18.390Z,49.90
2022-09-01T08:02:57.018Z,49.40
2022-09-01T08:05:28.966Z,49.10
2022-09-01T08:07:58.611Z,48.30
2022-09-01T08:10:36.913Z,47.80
2022-09-01T08:13:08.215Z,47.50
2022-09-01T08:16:06.397Z,46.70
2022-09-01T08:18:48.156Z,46.30
2022-09-01T08:21:26.690Z,46.00
2022-09-01T08:24:09.189Z,46.30
2022-09-01T08:26:39.227Z,46.40
2022-09-01T08:29:09.621Z,46.00
2022-09-01T08:31:43.541Z,45.40
2022-09-01T08:34:13.367Z,45.00
2022-09-01T08:36:43.103Z,44.60
2022-09-01T08:39:13.169Z,44.20
2022-09-01T08:42:08.835Z,43.90
2022-09-01T08:44:47.327Z,43.60
2022-09-01T08:47:28.694Z,43.50
2022-09-01T08:50:00.788Z,43.30
2022-09-01T08:53:13.659Z,43.10
2022-09-01T08:55:49.798Z,42.70
2022-09-01T08:58:19.526Z,42.60
2022-09-01T09:01:48.730Z,42.50
2022-09-01T09:04:51.873Z,42.20
2022-09-01T09:07:42.763Z,42.00
2022-09-01T09:10:24.108Z,42.10
2022-09-01T09:13:16.820Z,41.50
2022-09-01T09:16:11.196Z,41.30
2022-09-01T09:18:55.587Z,41.20
2022-09-01T09:21:43.751Z,41.10
2022-09-01T09:24:32.500Z,40.80
2022-09-01T09:27:09.645Z,40.40
2022-09-01T09:29:40.293Z,40.20
2022-09-01T09:35:25.315Z,40.10
2022-09-01T09:37:56.232Z,39.90
2022-09-01T09:40:27.279Z,39.90
2022-09-01T09:42:56.669Z,39.80
2022-09-01T09:45:32.736Z,39.70
2022-09-01T09:48:11.107Z,39.60
2022-09-01T09:50:43.295Z,39.30
2022-09-01T09:53:29.994Z,39.30
2022-09-01T09:56:16.444Z,39.50
2022-09-01T09:58:48.592Z,39.10
2022-09-01T10:01:24.571Z,38.90
2022-09-01T10:03:58.260Z,38.80
2022-09-01T10:06:47.094Z,38.50
2022-09-01T10:09:37.965Z,38.30
2022-09-01T10:12:10.416Z,38.40
2022-09-01T10:14:53.399Z,38.20
2022-09-01T10:17:35.938Z,37.90
2022-09-01T10:20:26.833Z,37.70
2022-09-01T10:22:56.742Z,37.50
2022-09-01T10:25:33.302Z,37.60
2022-09-01T10:28:21.302Z,37.70
2022-09-01T10:30:54.213Z,37.70
2022-09-01T10:33:23.594Z,37.60
2022-09-01T10:35:55.270Z,37.60
2022-09-01T10:38:30.672Z,37.60
2022-09-01T10:41:07.896Z,37.30
2022-09-01T10:43:51.701Z,36.80
2022-09-01T10:46:40.790Z,36.50
2022-09-01T10:49:47.951Z,36.60
2022-09-01T10:52:43.077Z,36.20
2022-09-01T10:55:34.256Z,36.00
2022-09-01T11:01:49.312Z,36.10
2022-09-01T11:04:24.062Z,36.10
2022-09-01T11:07:33.502Z,36.10
2022-09-01T11:10:11.793Z,35.90
2022-09-01T11:13:00.207Z,35.80
2022-09-01T11:15:37.524Z,35.70
2022-09-01T11:18:27.334Z,35.30
2022-09-01T11:21:30.997Z,35.20
2022-09-01T11:24:58.159Z,35.10
2022-09-01T11:27:50.419Z,34.90
2022-09-01T11:30:32.463Z,34.80
2022-09-01T11:33:16.652Z,34.70
2022-09-01T11:35:47.605Z,34.80
2022-09-01T11:38:19.915Z,34.70
2022-09-01T11:40:57.282Z,34.80
2022-09-01T11:43:27.653Z,34.60
2022-09-01T11:46:27.977Z,34.60
2022-09-01T11:49:01.359Z,34.20
2022-09-01T11:51:47.358Z,33.90
2022-09-01T11:54:16.974Z,33.50
2022-09-01T11:56:46.308Z,33.00
2022-09-01T11:59:31.078Z,32.90
2022-09-01T12:02:01.610Z,33.00
2022-09-01T12:04:40.151Z,32.70
2022-09-01T12:07:23.789Z,32.60
2022-09-01T12:09:53.479Z,32.60
2022-09-01T12:12:42.831Z,32.60
2022-09-01T12:15:25.444Z,32.50
2022-09-01T12:18:21.996Z,32.50
2022-09-01T12:20:53.615Z,32.10
2022-09-01T12:23:26.025Z,31.60
2022-09-01T12:25:59.633Z,31.20
2022-09-01T12:28:33.235Z,30.80
2022-09-01T12:31:07.847Z,30.60
2022-09-01T12:33:37.462Z,30.90
2022-09-01T12:36:26.358Z,30.60
2022-09-01T12:39:20.070Z,30.10
2022-09-01T12:42:27.554Z,29.90
2022-09-01T12:45:00.002Z,29.70
2022-09-01T12:47:38.416Z,29.60
2022-09-01T12:50:29.792Z,29.20
2022-09-01T12:53:04.031Z,28.90
2022-09-01T12:55:52.047Z,28.50
2022-09-01T12:58:26.138Z,28.80
2022-09-01T13:01:09.218Z,28.70
2022-09-01T13:04:12.975Z,28.20
2022-09-01T13:06:42.587Z,26.80
2022-09-01T13:09:12.120Z,25.00
2022-09-01T13:14:31.699Z,22.90
2022-09-01T13:17:01.308Z,22.10
2022-09-01T13:19:30.840Z,20.90
2022-09-01T13:22:00.254Z,20.00
2022-09-01T13:24:31.636Z,19.40
2022-09-01T13:29:51.741Z,18.40
2022-09-01T13:32:24.015Z,18.00
2022-09-01T13:34:54.916Z,17.70
2022-09-01T13:37:24.675Z,17.40
2022-09-01T13:39:54.190Z,17.30
2022-09-01T13:42:26.998Z,17.10
2022-09-01T13:44:58.456Z,17.20
2022-09-01T13:47:29.211Z,17.00
2022-09-01T13:50:10.498Z,16.80
2022-09-01T13:52:47.224Z,16.60
2022-09-01T13:55:33.556Z,16.70
2022-09-01T13:58:02.839Z,18.00
2022-09-01T14:00:47.884Z,19.50
2022-09-01T14:03:22.559Z,20.70
2022-09-01T14:05:51.977Z,21.90
2022-09-01T14:08:22.942Z,22.80
2022-09-01T14:10:54.087Z,23.80
2022-09-01T14:13:25.026Z,24.60
2022-09-01T14:15:54.947Z,25.40
2022-09-01T14:18:24.912Z,25.70
2022-09-01T14:20:58.870Z,26.20
2022-09-01T14:23:29.032Z,26.70
2022-09-01T14:25:58.929Z,27.10
2022-09-01T14:28:28.210Z,27.40
2022-09-01T14:33:27.389Z,27.80
2022-09-01T14:35:56.652Z,28.00
2022-09-01T14:38:26.067Z,28.20
2022-09-01T14:40:55.777Z,28.30
2022-09-01T14:43:26.805Z,28.50
2022-09-01T14:46:10.908Z,28.70
2022-09-01T14:48:40.959Z,29.00
2022-09-01T14:51:22.400Z,29.30
2022-09-01T14:53:54.330Z,29.50
2022-09-01T14:56:25.028Z,29.70
2022-09-01T14:59:00.499Z,29.70
2022-09-01T15:01:34.729Z,29.70
2022-09-01T15:04:04.352Z,29.90
2022-09-01T15:06:34.024Z,30.00
2022-09-01T15:09:03.880Z,30.00
2022-09-01T15:11:33.210Z,30.50
2022-09-01T15:14:05.311Z,30.60
2022-09-01T15:16:39.602Z,30.80
2022-09-01T15:19:11.394Z,31.40
2022-09-01T15:21:44.119Z,31.80
2022-09-01T15:24:14.319Z,32.00
2022-09-01T15:26:46.783Z,32.20
2022-09-01T15:29:16.162Z,32.20
2022-09-01T15:31:46.077Z,32.30
2022-09-01T15:34:17.213Z,32.50
2022-09-01T15:36:46.646Z,32.50
2022-09-01T15:39:15.926Z,32.70
2022-09-01T15:41:45.805Z,33.10
2022-09-01T15:44:15.131Z,33.40
2022-09-01T15:46:45.941Z,33.60
2022-09-01T15:49:15.351Z,33.90
2022-09-01T15:51:45.747Z,34.20
2022-09-01T15:54:19.982Z,34.60
2022-09-01T15:56:49.763Z,34.90
2022-09-01T15:59:19.275Z,35.20
2022-09-01T16:01:49.043Z,35.30
2022-09-01T16:04:20.954Z,35.70
2022-09-01T16:06:56.063Z,36.00
2022-09-01T16:09:26.583Z,36.30
2022-09-01T16:11:55.921Z,36.50
2022-09-01T16:14:25.245Z,37.40
2022-09-01T16:17:21.967Z,37.00
2022-09-01T16:20:02.422Z,37.30
2022-09-01T16:22:40.378Z,37.50
2022-09-01T16:25:31.594Z,37.80
2022-09-01T16:28:19.335Z,38.00
2022-09-01T16:30:52.198Z,38.20
2022-09-01T16:33:21.533Z,38.40
2022-09-01T16:36:21.400Z,38.60
2022-09-01T16:39:08.310Z,38.80
2022-09-01T16:42:26.204Z,39.10
2022-09-01T16:45:07.474Z,39.40
2022-09-01T16:48:03.948Z,39.50
2022-09-01T16:50:39.136Z,39.80
2022-09-01T16:53:59.141Z,40.00
2022-09-01T16:56:58.787Z,40.20
2022-09-01T16:59:36.156Z,40.30
2022-09-01T17:02:35.892Z,40.50
2022-09-01T17:05:32.537Z,40.70
2022-09-01T17:08:25.846Z,40.90
2022-09-01T17:11:35.267Z,41.00
2022-09-01T17:14:08.940Z,41.30
2022-09-01T17:16:45.387Z,41.50
2022-09-01T17:19:19.839Z,41.60
2022-09-01T17:22:03.139Z,41.80
2022-09-01T17:24:52.280Z,41.80
2022-09-01T17:27:59.516Z,42.00
2022-09-01T17:30:31.981Z,41.80
2022-09-01T17:33:19.446Z,41.80
2022-09-01T17:36:10.482Z,42.50
2022-09-01T17:39:14.289Z,41.90
2022-09-01T17:41:55.683Z,42.10
2022-09-01T17:44:56.467Z,42.10
2022-09-01T17:47:38.942Z,42.20
2022-09-01T17:50:36.763Z,42.30
2022-09-01T17:53:12.094Z,42.40
2022-09-01T17:56:18.656Z,42.40
2022-09-01T17:58:48.007Z,42.80
2022-09-01T18:01:42.743Z,43.10
2022-09-01T18:04:31.266Z,43.30
2022-09-01T18:07:19.807Z,43.40
2022-09-01T18:09:56.388Z,43.60
2022-09-01T18:12:31.414Z,43.80
2022-09-01T18:15:08.930Z,43.90
2022-09-01T18:17:47.673Z,43.90
2022-09-01T18:20:41.510Z,44.10
2022-09-01T18:23:15.444Z,44.30
2022-09-01T18:26:05.170Z,44.30
2022-09-01T18:28:34.658Z,44.50
2022-09-01T18:31:34.963Z,44.50
2022-09-01T18:34:29.395Z,44.70
2022-09-01T18:37:21.823Z,44.80
2022-09-01T18:40:01.961Z,45.00
2022-09-01T18:43:07.176Z,45.20
2022-09-01T18:45:58.772Z,45.30
2022-09-01T18:48:52.240Z,45.50
2022-09-01T18:51:45.798Z,45.70
2022-09-01T18:54:24.705Z,46.00
2022-09-01T18:57:05.889Z,46.00
2022-09-01T19:00:02.241Z,46.20
2022-09-01T19:02:54.232Z,46.30
2022-09-01T19:05:38.546Z,46.40
2022-09-01T19:08:52.230Z,46.60
2022-09-01T19:12:00.058Z,46.80
2022-09-01T19:15:02.430Z,47.00
2022-09-01T19:18:19.726Z,47.00
2022-09-01T19:21:09.776Z,47.20
2022-09-01T19:23:55.143Z,47.10
2022-09-01T19:26:27.201Z,48.00
2022-09-01T19:29:07.588Z,47.50
2022-09-01T19:31:45.452Z,47.80
2022-09-01T19:34:19.119Z,47.90
2022-09-01T19:37:02.055Z,47.90
2022-09-01T19:39:43.884Z,48.10
2022-09-01T19:42:30.456Z,48.10
2022-09-01T19:45:20.783Z,48.20
2022-09-01T19:48:43.223Z,48.40
2022-09-01T19:51:35.127Z,48.50
2022-09-01T19:54:35.042Z,48.70
2022-09-01T19:57:28.740Z,49.10
2022-09-01T20:00:09.684Z,49.30
2022-09-01T20:03:07.715Z,49.50
2022-09-01T20:06:00.382Z,49.50
2022-09-01T20:09:09.797Z,49.50
2022-09-01T20:12:07.444Z,49.60
2022-09-01T20:15:24.250Z,49.60
2022-09-01T20:18:07.437Z,49.70
2022-09-01T20:20:47.386Z,49.80
2022-09-01T20:23:38.457Z,50.00
2022-09-01T20:26:23.330Z,50.10
2022-09-01T20:29:16.586Z,50.10
2022-09-01T20:31:54.183Z,50.00
2022-09-01T20:34:42.173Z,50.00
2022-09-01T20:37:21.467Z,50.10
2022-09-01T20:40:04.339Z,50.10
2022-09-01T20:42:46.624Z,50.20
2022-09-01T20:45:24.725Z,50.30
2022-09-01T20:48:13.008Z,50.40
2022-09-01T20:51:07.856Z,50.60
2022-09-01T20:54:16.550Z,50.70
2022-09-01T20:57:09.833Z,50.80
2022-09-01T20:59:39.097Z,50.80
2022-09-01T21:02:40.269Z,50.80
2022-09-01T21:05:24.710Z,50.90
2022-09-01T21:08:17.682Z,51.10
2022-09-01T21:10:47.026Z,51.40
2022-09-01T21:13:53.855Z,51.50
2022-09-01T21:17:02.173Z,51.70
2022-09-01T21:19:34.292Z,51.60
2022-09-01T21:22:21.768Z,51.40
2022-09-01T21:24:51.408Z,51.40
2022-09-01T21:27:26.733Z,51.30
2022-09-01T21:30:07.413Z,51.40
2022-09-01T21:32:37.697Z,51.40
2022-09-01T21:35:12.863Z,51.40
2022-09-01T21:37:42.207Z,51.40
2022-09-01T21:40:14.043Z,51.40
2022-09-01T21:43:03.183Z,51.40
2022-09-01T21:45:36.701Z,51.40
2022-09-01T21:48:06.698Z,51.40
2022-09-01T21:50:36.410Z,51.40
2022-09-01T21:53:05.962Z,52.00
2022-09-01T21:55:36.773Z,51.30
2022-09-01T21:58:06.931Z,51.30
2022-09-01T22:00:39.830Z,51.10
2022-09-01T22:03:10.978Z,51.20
2022-09-01T22:05:42.427Z,51.20
2022-09-01T22:08:14.282Z,51.30
2022-09-01T22:10:50.622Z,51.40
2022-09-01T22:13:24.794Z,51.50
2022-09-01T22:15:55.033Z,51.50
2022-09-01T22:18:24.435Z,52.20
2022-09-01T22:21:06.505Z,51.60
2022-09-01T22:23:36.871Z,51.60
2022-09-01T22:26:06.836Z,51.60
2022-09-01T22:28:36.920Z,51.70
2022-09-01T22:31:07.239Z,51.70
2022-09-01T22:33:36.560Z,51.70
2022-09-01T22:36:06.053Z,51.90
2022-09-01T22:38:35.472Z,52.00
2022-09-01T22:41:04.839Z,52.20
2022-09-01T22:43:34.223Z,52.40
2022-09-01T22:46:06.621Z,52.70
2022-09-01T22:48:35.962Z,52.90
2022-09-01T22:51:08.491Z,53.10
2022-09-01T22:53:40.307Z,53.30
2022-09-01T22:56:14.777Z,53.30
2022-09-01T22:58:44.067Z,53.20
2022-09-01T23:01:18.169Z,53.30
2022-09-01T23:03:48.572Z,53.50
2022-09-01T23:06:27.728Z,53.80
2022-09-01T23:09:00.271Z,53.90
2022-09-01T23:11:30.080Z,53.80
2022-09-01T23:13:59.540Z,53.80
2022-09-01T23:16:28.934Z,53.60
2022-09-01T23:18:58.495Z,53.70
2022-09-01T23:21:33.218Z,53.70
2022-09-01T23:24:03.281Z,53.90
2022-09-01T23:26:32.635Z,54.00
2022-09-01T23:29:03.754Z,54.10
2022-09-01T23:31:37.825Z,54.30
2022-09-01T23:34:08.987Z,54.40
2022-09-01T23:36:38.274Z,54.50
2022-09-01T23:39:07.923Z,54.40
2022-09-01T23:41:38.225Z,54.40
2022-09-01T23:44:10.933Z,54.70
2022-09-01T23:46:46.533Z,54.70
2022-09-01T23:49:18.340Z,54.60
2022-09-01T23:51:48.446Z,54.50
2022-09-01T23:54:17.693Z,54.60
2022-09-01T23:56:47.508Z,54.80
2022-09-01T23:59:16.980Z,54.90
